Terminal Aerodrome Forecast
Issued by NWS Sterling, VA

Current Version | Previous Version | Graphics & Text | Print | Product List | Glossary On
Versions: 1 2 3 4 5 6 7 8 9 10 11 12 13 14 15 16 17 18
000
FTUS41 KLWX 231700
TAFMRB
TAF
KMRB 231735Z 2318/2418 14008KT P6SM BKN090
     FM232100 16013KT P6SM BKN200
     FM232200 16009KT P6SM BKN150
     FM240100 14008KT 5SM -RA OVC050
     FM240300 13008KT P6SM RA OVC015
     FM240500 14011KT 6SM RA OVC008
     FM240800 17010KT 3SM -RA OVC008
     FM241100 18009KT P6SM BKN008
     FM241200 18009KT P6SM BKN015=

USA.gov is the U.S. government's official web portal to all federal, state and local government web resources and services.